Time;durP1;ratioP1;P1;durP2;ratioP2;P2;SDS_P1;SDS_P2;PMS_P1;PMS_P2;Temp;Humidity;BMP_temperature;BMP_pressure;BME280_temperature;BME280_humidity;BME280_pressure;Samples;Min_cycle;Max_cycle;Signal;HPM_P1;HPM_P2
2023/03/13 00:00:11;;;;;;;32.55;6.88;;;;;;;9.92;100.00;100204.47;6231228;23;20020;-69
2023/03/13 00:02:37;;;;;;;33.80;6.35;;;;;;;9.92;100.00;100202.66;6203683;23;20012;-67
2023/03/13 00:05:03;;;;;;;25.80;5.78;;;;;;;9.75;100.00;100187.03;6232027;23;20019;-67
2023/03/13 00:07:28;;;;;;;35.35;7.15;;;;;;;9.85;100.00;100174.78;6231424;23;20016;-67
2023/03/13 00:09:54;;;;;;;30.50;5.45;;;;;;;9.78;100.00;100173.47;6230479;23;20020;-67
2023/03/13 00:12:19;;;;;;;24.58;5.68;;;;;;;9.89;100.00;100168.28;6231881;23;20011;-67
2023/03/13 00:14:45;;;;;;;31.25;5.78;;;;;;;9.96;100.00;100160.69;6232142;23;20031;-67
2023/03/13 00:17:10;;;;;;;35.25;6.03;;;;;;;9.70;100.00;100149.22;6230215;23;20051;-65
2023/03/13 00:19:35;;;;;;;43.45;6.57;;;;;;;9.92;100.00;100151.22;6231454;23;20023;-67
2023/03/13 00:22:01;;;;;;;26.83;4.95;;;;;;;9.93;100.00;100148.41;6231608;23;20020;-68
2023/03/13 00:24:26;;;;;;;26.85;6.47;;;;;;;9.97;100.00;100135.75;6231595;23;20011;-67
2023/03/13 00:26:53;;;;;;;43.08;7.63;;;;;;;9.99;100.00;100132.03;6231255;23;20023;-67
2023/03/13 00:29:19;;;;;;;30.25;5.90;;;;;;;9.88;100.00;100128.41;6230370;23;20354;-66
2023/03/13 00:31:45;;;;;;;37.40;7.10;;;;;;;9.90;100.00;100108.72;6229172;23;20568;-68
2023/03/13 00:34:10;;;;;;;34.25;7.20;;;;;;;9.84;100.00;100111.84;6202505;23;20047;-67
2023/03/13 00:36:36;;;;;;;28.45;5.40;;;;;;;9.92;100.00;100106.78;6200240;23;20553;-66
2023/03/13 00:39:03;;;;;;;29.52;4.75;;;;;;;9.95;100.00;100089.75;6203096;23;20008;-68
2023/03/13 00:41:31;;;;;;;20.50;5.32;;;;;;;9.93;100.00;100095.16;6230609;23;20027;-68
2023/03/13 00:43:57;;;;;;;34.92;6.45;;;;;;;9.98;100.00;100086.84;6230067;23;20363;-67
2023/03/13 00:46:26;;;;;;;30.90;5.63;;;;;;;10.01;100.00;100083.97;6230617;23;20011;-68
2023/03/13 00:48:52;;;;;;;35.30;5.53;;;;;;;10.09;100.00;100077.13;6230667;23;20012;-67
2023/03/13 00:51:19;;;;;;;29.85;5.47;;;;;;;9.96;100.00;100075.47;6204426;23;20433;-67
2023/03/13 00:53:47;;;;;;;22.80;5.47;;;;;;;10.02;100.00;100083.84;6230346;23;20028;-67
2023/03/13 00:56:14;;;;;;;32.75;5.88;;;;;;;9.98;100.00;100085.03;6178607;23;20081;-67
2023/03/13 00:58:42;;;;;;;31.20;5.10;;;;;;;9.69;100.00;100083.63;6231624;23;20020;-68
2023/03/13 01:01:31;;;;;;;24.42;5.85;;;;;;;9.84;100.00;100074.56;6232108;23;20020;-67
2023/03/13 01:04:00;;;;;;;24.75;5.35;;;;;;;9.83;100.00;100075.47;6206211;23;20028;-68
2023/03/13 01:06:28;;;;;;;37.38;6.57;;;;;;;9.89;100.00;100064.41;6232754;23;20012;-67
2023/03/13 01:08:57;;;;;;;37.75;7.45;;;;;;;9.83;100.00;100059.50;6180397;23;20104;-66
2023/03/13 01:11:26;;;;;;;28.65;5.60;;;;;;;9.67;100.00;100053.59;6204290;23;20332;-67
2023/03/13 01:13:59;;;;;;;36.28;6.20;;;;;;;9.81;100.00;100050.78;6231789;23;20020;-65
2023/03/13 01:16:27;;;;;;;30.65;5.20;;;;;;;9.65;100.00;100045.75;6205751;23;20067;-67
2023/03/13 01:18:55;;;;;;;37.38;7.97;;;;;;;9.69;100.00;100033.03;6230675;23;20024;-67
2023/03/13 01:21:22;;;;;;;43.80;6.55;;;;;;;9.72;100.00;100030.16;6231572;23;20012;-67
2023/03/13 01:23:50;;;;;;;44.65;6.90;;;;;;;9.79;100.00;100031.44;6232341;23;20332;-68
2023/03/13 01:26:16;;;;;;;43.45;7.47;;;;;;;9.67;100.00;100019.00;6204545;23;20535;-67
2023/03/13 01:28:42;;;;;;;30.15;7.03;;;;;;;9.65;100.00;100013.81;6231819;23;20346;-67
2023/03/13 01:31:17;;;;;;;25.35;5.85;;;;;;;9.74;100.00;100007.81;6204358;23;20030;-67
2023/03/13 01:33:44;;;;;;;34.65;7.00;;;;;;;9.83;100.00;99998.28;6231424;23;20012;-68
2023/03/13 01:36:10;;;;;;;34.05;5.80;;;;;;;9.72;100.00;99991.06;6230987;23;20016;-68
2023/03/13 01:38:37;;;;;;;28.83;6.40;;;;;;;9.70;100.00;99990.34;6203713;23;20078;-67
2023/03/13 01:41:03;;;;;;;34.35;5.88;;;;;;;9.83;100.00;99977.81;6204069;23;20020;-67
2023/03/13 01:43:32;;;;;;;38.45;6.10;;;;;;;9.84;100.00;99965.38;6228742;23;20031;-66
2023/03/13 01:46:06;;;;;;;38.60;7.13;;;;;;;9.93;100.00;99961.16;6203925;23;20448;-68
2023/03/13 01:49:11;;;;;;;30.20;6.57;;;;;;;9.84;100.00;99958.25;6203915;23;20028;-68
2023/03/13 01:52:07;;;;;;;39.15;8.30;;;;;;;9.86;100.00;99947.47;6181899;23;20796;-67
2023/03/13 01:54:40;;;;;;;31.30;5.60;;;;;;;9.90;100.00;99930.28;6204009;23;20402;-66
2023/03/13 01:57:07;;;;;;;24.67;6.55;;;;;;;9.83;100.00;99934.38;6202975;23;20031;-67
2023/03/13 02:00:07;;;;;;;29.50;5.85;;;;;;;9.76;100.00;99928.66;6202424;23;20038;-66
2023/03/13 02:02:42;;;;;;;43.63;6.90;;;;;;;9.85;100.00;99924.47;6230594;23;20059;-66
2023/03/13 02:05:08;;;;;;;25.40;6.97;;;;;;;9.88;100.00;99926.88;6231021;23;20027;-66
2023/03/13 02:07:53;;;;;;;25.20;5.65;;;;;;;10.03;100.00;99899.09;6203391;23;20123;-67
2023/03/13 02:10:20;;;;;;;32.65;6.90;;;;;;;10.10;100.00;99907.47;6231271;23;20024;-67
2023/03/13 02:12:47;;;;;;;25.35;5.80;;;;;;;10.08;100.00;99896.06;6177705;23;20019;-68
2023/03/13 02:15:16;;;;;;;29.13;5.60;;;;;;;10.09;100.00;99895.97;6202846;23;20027;-67
2023/03/13 02:17:44;;;;;;;16.73;5.00;;;;;;;10.14;100.00;99890.31;6203662;23;20020;-66
2023/03/13 02:20:12;;;;;;;25.75;4.95;;;;;;;10.09;100.00;99881.78;6231122;23;20050;-67
2023/03/13 02:22:43;;;;;;;15.10;5.00;;;;;;;10.09;100.00;99876.47;6203782;23;20028;-67
2023/03/13 02:25:10;;;;;;;24.38;5.25;;;;;;;10.22;100.00;99882.53;6227888;23;20559;-66
2023/03/13 02:27:36;;;;;;;24.60;5.60;;;;;;;10.09;100.00;99871.13;6203276;23;20016;-67
2023/03/13 02:30:04;;;;;;;23.73;5.70;;;;;;;10.17;100.00;99868.72;6228658;23;20059;-66
2023/03/13 02:32:30;;;;;;;26.80;6.35;;;;;;;10.32;100.00;99856.91;6203478;23;20020;-67
2023/03/13 02:35:01;;;;;;;17.95;5.25;;;;;;;10.20;100.00;99847.19;6230820;23;20012;-68
2023/03/13 02:37:29;;;;;;;25.17;6.57;;;;;;;10.26;100.00;99843.22;6203987;23;20117;-68
2023/03/13 02:39:59;;;;;;;14.82;5.57;;;;;;;10.37;100.00;99838.75;6204115;23;20110;-66
2023/03/13 02:42:27;;;;;;;23.13;5.22;;;;;;;10.45;100.00;99830.16;6203859;23;20090;-69
2023/03/13 02:44:53;;;;;;;14.75;5.45;;;;;;;10.34;100.00;99822.16;6204573;23;20083;-68
2023/03/13 02:47:24;;;;;;;25.48;4.90;;;;;;;10.46;100.00;99821.19;6203876;23;20979;-68
2023/03/13 02:49:50;;;;;;;22.02;5.70;;;;;;;10.43;100.00;99809.91;6203921;23;20127;-68
2023/03/13 02:52:38;;;;;;;20.00;6.43;;;;;;;10.40;100.00;99794.19;6203732;23;20020;-66
2023/03/13 02:55:11;;;;;;;19.25;6.50;;;;;;;10.51;100.00;99794.19;6203329;23;20016;-65
2023/03/13 02:57:36;;;;;;;;;;;;;;;10.35;100.00;99779.41;6179419;23;20070;-68
2023/03/13 03:00:05;;;;;;;23.77;5.35;;;;;;;10.56;100.00;99786.66;6254506;22;20375;-67
2023/03/13 03:02:31;;;;;;;22.75;6.05;;;;;;;10.62;100.00;99783.50;6230795;23;20083;-67
2023/03/13 03:04:57;;;;;;;22.25;7.75;;;;;;;10.66;100.00;99787.63;6180459;23;20082;-68
2023/03/13 03:07:23;;;;;;;31.20;6.43;;;;;;;10.56;100.00;99786.66;6205254;23;20016;-68
2023/03/13 03:09:49;;;;;;;19.10;7.00;;;;;;;10.63;100.00;99796.69;6205886;23;20028;-68
2023/03/13 03:12:17;;;;;;;18.58;6.20;;;;;;;10.56;100.00;99798.16;6181282;23;20082;-68
2023/03/13 03:14:43;;;;;;;24.65;6.60;;;;;;;10.70;100.00;99789.06;6205475;23;20737;-69
2023/03/13 03:17:09;;;;;;;22.77;7.05;;;;;;;10.83;100.00;99784.41;6180147;23;20058;-68
2023/03/13 03:19:34;;;;;;;23.60;7.78;;;;;;;10.76;100.00;99782.38;6205336;23;20027;-66
2023/03/13 03:22:00;;;;;;;16.92;7.30;;;;;;;10.83;100.00;99787.06;6205011;23;20443;-68
2023/03/13 03:24:26;;;;;;;22.50;7.18;;;;;;;10.79;100.00;99774.13;6180296;23;20012;-67
2023/03/13 03:26:51;;;;;;;33.10;9.98;;;;;;;10.99;100.00;99799.16;6230839;23;20478;-68
2023/03/13 03:29:27;;;;;;;26.75;8.57;;;;;;;10.89;100.00;99791.94;6204718;23;20019;-68
2023/03/13 03:31:55;;;;;;;25.45;9.38;;;;;;;10.95;100.00;99784.41;6230271;23;20020;-67
2023/03/13 03:34:21;;;;;;;21.27;8.77;;;;;;;10.88;100.00;99789.38;6205275;23;20552;-68
2023/03/13 03:36:47;;;;;;;24.98;8.80;;;;;;;11.07;100.00;99783.38;6205324;23;20089;-68
2023/03/13 03:39:12;;;;;;;14.18;8.07;;;;;;;11.10;100.00;99780.47;6232090;23;20008;-68
2023/03/13 03:41:38;;;;;;;22.45;9.07;;;;;;;11.20;100.00;99781.41;6205324;23;20012;-68
2023/03/13 03:44:05;;;;;;;20.20;8.13;;;;;;;11.24;100.00;99774.81;6205352;23;20020;-67
2023/03/13 03:46:42;;;;;;;30.10;8.75;;;;;;;11.25;100.00;99779.19;6205416;23;20043;-74
2023/03/13 03:49:07;;;;;;;22.83;7.75;;;;;;;11.18;100.00;99778.00;6232188;23;20027;-68
2023/03/13 03:51:33;;;;;;;17.38;8.60;;;;;;;11.28;100.00;99773.59;6205136;23;20023;-68
2023/03/13 03:53:58;;;;;;;23.08;9.13;;;;;;;11.31;100.00;99769.84;6230059;23;20020;-68
2023/03/13 03:56:24;;;;;;;27.73;9.23;;;;;;;11.36;100.00;99768.47;6203850;23;20020;-68
2023/03/13 03:58:54;;;;;;;25.67;8.55;;;;;;;11.38;100.00;99773.66;6232406;23;20014;-68
2023/03/13 04:01:31;;;;;;;21.10;8.75;;;;;;;11.30;100.00;99765.47;6205064;23;20008;-68
2023/03/13 04:03:56;;;;;;;21.42;8.63;;;;;;;11.31;100.00;99767.16;6231949;23;20493;-68
2023/03/13 04:06:22;;;;;;;25.75;9.95;;;;;;;11.39;100.00;99762.00;6232242;23;20019;-67
2023/03/13 04:08:48;;;;;;;27.10;9.40;;;;;;;11.35;100.00;99747.25;6204549;23;20016;-68
2023/03/13 04:11:16;;;;;;;26.75;10.27;;;;;;;11.46;100.00;99759.69;6229486;23;20024;-68
2023/03/13 04:13:47;;;;;;;25.80;9.52;;;;;;;11.44;100.00;99751.78;6204459;23;20012;-68
2023/03/13 04:16:12;;;;;;;16.92;9.85;;;;;;;11.54;100.00;99750.03;6204371;23;20020;-68
2023/03/13 04:18:39;;;;;;;18.15;9.52;;;;;;;11.53;100.00;99750.19;6204534;23;20027;-68
2023/03/13 04:21:05;;;;;;;17.17;8.77;;;;;;;11.44;100.00;99743.78;6229449;23;20085;-69
2023/03/13 04:23:39;;;;;;;21.02;9.95;;;;;;;11.64;100.00;99750.09;6204810;23;20814;-68
2023/03/13 04:26:04;;;;;;;16.77;10.68;;;;;;;11.57;100.00;99741.78;6204602;23;20020;-68
2023/03/13 04:28:30;;;;;;;21.80;9.60;;;;;;;11.54;100.00;99741.19;6231133;23;20022;-68
2023/03/13 04:30:57;;;;;;;27.10;10.00;;;;;;;11.60;100.00;99736.19;6230061;23;20020;-70
2023/03/13 04:33:45;;;;;;;22.48;10.00;;;;;;;11.79;100.00;99734.59;6223731;23;20378;-71
2023/03/13 04:36:26;;;;;;;17.85;8.93;;;;;;;11.62;100.00;99739.56;6205503;23;20058;-68
2023/03/13 04:39:10;;;;;;;24.15;9.18;;;;;;;11.74;100.00;99726.97;6232152;23;20027;-68
2023/03/13 04:41:55;;;;;;;22.73;9.85;;;;;;;11.86;100.00;99720.63;6204406;23;20538;-68
2023/03/13 04:44:34;;;;;;;22.45;10.57;;;;;;;11.88;100.00;99724.00;6208153;23;20115;-68
2023/03/13 04:47:12;;;;;;;20.83;9.70;;;;;;;11.84;100.00;99719.03;6204624;23;20454;-67
2023/03/13 04:50:06;;;;;;;17.35;8.52;;;;;;;11.96;100.00;99714.47;6198240;23;20024;-68
2023/03/13 04:52:43;;;;;;;18.80;9.15;;;;;;;11.98;100.00;99701.81;6205614;23;20485;-70
2023/03/13 04:55:22;;;;;;;17.73;8.05;;;;;;;11.92;100.00;99690.69;6205223;23;20036;-66
2023/03/13 04:57:55;;;;;;;16.45;8.65;;;;;;;11.95;100.00;99678.03;6232687;23;20016;-67
2023/03/13 05:00:39;;;;;;;16.73;8.60;;;;;;;12.04;100.00;99672.72;6204794;23;20663;-67
2023/03/13 05:03:22;;;;;;;19.15;7.90;;;;;;;12.16;100.00;99671.66;6232274;23;20012;-66
2023/03/13 05:06:15;;;;;;;12.52;7.88;;;;;;;12.11;100.00;99665.88;6227735;23;20771;-67
2023/03/13 05:09:00;;;;;;;15.75;7.97;;;;;;;12.08;100.00;99655.44;6229248;22;20026;-67
2023/03/13 05:11:39;;;;;;;18.65;9.05;;;;;;;12.10;100.00;99648.16;6296121;22;20022;-67
2023/03/13 05:14:22;;;;;;;19.17;8.82;;;;;;;12.20;100.00;99653.53;6300991;22;20071;-65
2023/03/13 05:17:06;;;;;;;15.25;8.43;;;;;;;12.21;100.00;99646.34;6300321;22;20411;-67
2023/03/13 05:19:50;;;;;;;17.23;8.18;;;;;;;12.20;100.00;99634.81;6324251;22;20038;-67
2023/03/13 05:22:42;;;;;;;20.73;8.98;;;;;;;12.36;100.00;99640.47;6321522;22;20019;-66
2023/03/13 05:25:10;;;;;;;15.70;7.68;;;;;;;12.25;100.00;99643.28;6324377;22;20022;-67
2023/03/13 05:28:02;;;;;;;20.80;7.50;;;;;;;12.32;100.00;99638.22;6298554;22;20041;-67
2023/03/13 05:30:46;;;;;;;18.20;8.85;;;;;;;12.26;100.00;99634.28;6322015;22;20092;-67
2023/03/13 05:33:38;;;;;;;15.63;8.40;;;;;;;12.29;100.00;99642.00;6288580;22;20019;-67
2023/03/13 05:36:10;;;;;;;19.02;9.02;;;;;;;12.40;100.00;99643.72;6295431;22;20022;-67
2023/03/13 05:38:36;;;;;;;15.48;7.75;;;;;;;12.41;100.00;99637.38;6323948;22;20080;-66
2023/03/13 05:41:09;;;;;;;18.65;7.35;;;;;;;12.62;100.00;99635.44;6324523;22;20007;-66
2023/03/13 05:43:56;;;;;;;14.45;7.60;;;;;;;12.55;100.00;99622.75;6296754;22;20019;-67
2023/03/13 05:46:54;;;;;;;12.35;6.97;;;;;;;12.57;100.00;99618.13;6258339;22;20102;-66
2023/03/13 05:49:39;;;;;;;10.07;6.18;;;;;;;12.66;100.00;99627.97;6196647;22;20101;-67
2023/03/13 05:52:25;;;;;;;18.55;7.55;;;;;;;12.65;100.00;99623.59;6242169;22;20034;-67
2023/03/13 05:55:18;;;;;;;16.42;6.93;;;;;;;12.57;100.00;99621.63;6255768;22;20019;-68
2023/03/13 05:58:04;;;;;;;12.88;6.68;;;;;;;12.52;100.00;99620.38;6256733;22;20457;-66
2023/03/13 06:00:57;;;;;;;16.70;6.13;;;;;;;12.68;100.00;99623.31;6231077;22;20365;-68
2023/03/13 06:03:41;;;;;;;21.85;7.38;;;;;;;12.74;100.00;99635.28;6259687;22;20102;-68
2023/03/13 06:06:09;;;;;;;15.15;7.35;;;;;;;12.65;100.00;99631.63;6254604;22;20019;-67
2023/03/13 06:08:39;;;;;;;16.75;6.90;;;;;;;12.73;100.00;99629.09;6249355;22;20091;-66
2023/03/13 06:11:04;;;;;;;14.50;6.70;;;;;;;12.78;100.00;99624.16;6224575;23;20540;-66
2023/03/13 06:13:31;;;;;;;17.88;6.72;;;;;;;12.76;100.00;99628.81;6199742;23;20024;-66
2023/03/13 06:16:02;;;;;;;12.75;6.43;;;;;;;12.72;100.00;99627.41;6200240;23;20028;-67
2023/03/13 06:18:38;;;;;;;10.63;5.80;;;;;;;12.87;100.00;99628.66;6226521;23;20067;-66
2023/03/13 06:21:03;;;;;;;20.15;6.60;;;;;;;12.90;100.00;99619.50;6226703;23;20024;-67
2023/03/13 06:23:29;;;;;;;18.30;7.00;;;;;;;12.86;100.00;99610.09;6283601;22;20122;-67
2023/03/13 06:25:54;;;;;;;15.65;7.03;;;;;;;12.92;100.00;99617.56;6291799;22;20847;-68
2023/03/13 06:28:20;;;;;;;9.38;4.85;;;;;;;12.94;100.00;99615.56;6264211;22;20023;-66
2023/03/13 06:30:46;;;;;;;13.30;6.18;;;;;;;13.02;100.00;99610.34;6291092;22;20011;-67
2023/03/13 06:33:11;;;;;;;11.68;5.80;;;;;;;13.10;100.00;99605.13;6239138;22;20011;-66
2023/03/13 06:35:41;;;;;;;12.90;5.30;;;;;;;13.02;100.00;99612.19;6292255;22;20065;-68
2023/03/13 06:38:07;;;;;;;11.63;5.18;;;;;;;13.02;100.00;99605.00;6292306;22;20250;-67
2023/03/13 06:40:33;;;;;;;13.20;5.85;;;;;;;13.08;100.00;99593.72;6293209;22;20424;-66
2023/03/13 06:42:58;;;;;;;11.68;5.38;;;;;;;13.24;100.00;99595.81;6240394;22;20019;-66
2023/03/13 06:45:24;;;;;;;11.93;5.30;;;;;;;13.07;100.00;99580.47;6294038;22;20050;-67
2023/03/13 06:47:51;;;;;;;12.23;4.13;;;;;;;13.13;100.00;99586.09;6265930;22;20234;-67
2023/03/13 06:50:17;;;;;;;9.88;4.22;;;;;;;13.18;100.00;99585.66;6293881;22;20015;-67
2023/03/13 06:52:42;;;;;;;15.45;4.65;;;;;;;13.28;100.00;99572.28;6292430;22;20023;-67
2023/03/13 06:55:08;;;;;;;17.95;5.22;;;;;;;13.26;100.00;99580.47;6294070;22;20045;-66
2023/03/13 06:57:34;;;;;;;11.43;4.28;;;;;;;13.37;100.00;99566.06;6294122;22;20019;-66
2023/03/13 06:59:59;;;;;;;15.77;4.05;;;;;;;13.41;100.00;99567.47;6294097;22;20424;-67
2023/03/13 07:02:25;;;;;;;8.18;4.30;;;;;;;13.35;100.00;99555.47;6294302;22;20015;-65
2023/03/13 07:04:50;;;;;;;13.45;4.63;;;;;;;13.36;100.00;99570.56;6266709;22;20661;-66
2023/03/13 07:07:16;;;;;;;15.50;4.65;;;;;;;13.46;100.00;99557.16;6294353;22;20015;-67
2023/03/13 07:09:41;;;;;;;11.27;3.70;;;;;;;13.43;100.00;99560.13;6294421;22;20041;-67
2023/03/13 07:12:07;;;;;;;12.98;3.85;;;;;;;13.50;100.00;99560.34;6266834;22;20042;-68
2023/03/13 07:14:33;;;;;;;9.75;3.70;;;;;;;13.57;100.00;99564.16;6265997;22;20019;-67
2023/03/13 07:16:58;;;;;;;12.05;4.25;;;;;;;13.51;100.00;99556.72;6294404;22;20015;-67
2023/03/13 07:19:25;;;;;;;18.50;4.22;;;;;;;13.59;100.00;99559.47;6295002;22;20051;-67
2023/03/13 07:21:51;;;;;;;11.68;4.53;;;;;;;13.70;100.00;99553.91;6267271;22;20038;-67
2023/03/13 07:24:17;;;;;;;9.25;3.65;;;;;;;13.68;100.00;99551.41;6292298;22;20023;-67
2023/03/13 07:26:43;;;;;;;9.73;3.78;;;;;;;13.81;100.00;99552.91;6266524;22;20074;-67
2023/03/13 07:29:09;;;;;;;15.57;3.72;;;;;;;13.80;100.00;99541.31;6294391;22;20615;-67
2023/03/13 07:31:34;;;;;;;15.02;4.00;;;;;;;13.89;100.00;99542.25;6294095;22;20047;-67
2023/03/13 07:34:00;;;;;;;9.27;3.70;;;;;;;13.91;100.00;99556.38;6266544;22;20022;-67
2023/03/13 07:36:25;;;;;;;14.73;4.55;;;;;;;13.84;100.00;99552.56;6294119;22;20536;-67
2023/03/13 07:38:51;;;;;;;10.43;3.67;;;;;;;13.83;100.00;99551.75;6293580;22;20524;-66
2023/03/13 07:41:18;;;;;;;8.85;3.92;;;;;;;13.89;100.00;99552.97;6294018;22;20563;-67
2023/03/13 07:43:44;;;;;;;7.35;3.55;;;;;;;13.86;100.00;99545.25;6265693;22;20023;-67
2023/03/13 07:46:12;;;;;;;14.65;5.68;;;;;;;13.91;100.00;99548.31;6293419;22;20019;-67
2023/03/13 07:48:40;;;;;;;13.77;4.53;;;;;;;13.88;100.00;99549.44;6265908;22;20019;-67
2023/03/13 07:51:09;;;;;;;9.20;3.47;;;;;;;14.05;100.00;99546.94;6292979;22;20110;-66
2023/03/13 07:53:35;;;;;;;12.10;3.33;;;;;;;14.05;100.00;99553.16;6293213;22;20043;-66
2023/03/13 07:56:04;;;;;;;14.02;3.42;;;;;;;14.06;100.00;99549.50;6292730;22;20805;-67
2023/03/13 07:58:32;;;;;;;12.85;3.88;;;;;;;14.28;100.00;99548.19;6265505;22;20015;-67
2023/03/13 08:00:57;;;;;;;13.90;3.38;;;;;;;14.15;100.00;99548.56;6292345;22;20015;-67
2023/03/13 08:03:24;;;;;;;10.20;3.20;;;;;;;14.09;100.00;99549.16;6239202;22;20015;-66
2023/03/13 08:06:00;;;;;;;7.40;4.18;;;;;;;14.13;100.00;99545.19;6293079;22;20030;-67
2023/03/13 08:08:26;;;;;;;18.85;3.38;;;;;;;14.33;100.00;99545.91;6292827;22;20011;-67
2023/03/13 08:10:52;;;;;;;5.95;2.75;;;;;;;14.12;100.00;99530.13;6265392;22;20085;-67
2023/03/13 08:13:17;;;;;;;9.63;3.00;;;;;;;14.12;100.00;99540.84;6293268;22;20189;-67
2023/03/13 08:15:43;;;;;;;12.15;3.65;;;;;;;14.12;100.00;99538.16;6292989;22;20445;-68
2023/03/13 08:18:09;;;;;;;7.72;2.70;;;;;;;13.96;100.00;99546.88;6293056;22;20015;-67
2023/03/13 08:20:34;;;;;;;9.82;2.88;;;;;;;13.96;100.00;99559.44;6292828;22;20022;-67
2023/03/13 08:23:00;;;;;;;10.88;2.85;;;;;;;14.04;100.00;99564.88;6291861;22;20058;-65
2023/03/13 08:25:25;;;;;;;7.45;2.92;;;;;;;14.17;100.00;99557.31;6292182;22;20007;-67
2023/03/13 08:27:51;;;;;;;8.75;2.78;;;;;;;14.09;100.00;99551.84;6293089;22;20015;-67
2023/03/13 08:30:17;;;;;;;11.50;3.30;;;;;;;14.22;100.00;99557.69;6292437;22;20057;-67
2023/03/13 08:32:42;;;;;;;11.10;3.58;;;;;;;14.53;100.00;99551.97;6293132;22;20019;-67
2023/03/13 08:35:08;;;;;;;8.38;2.80;;;;;;;14.60;100.00;99563.75;6293174;22;20466;-65
2023/03/13 08:37:33;;;;;;;7.25;2.65;;;;;;;14.57;100.00;99534.59;6293837;22;20480;-67
2023/03/13 08:39:59;;;;;;;5.90;2.83;;;;;;;14.74;100.00;99532.88;6265693;22;20445;-67
2023/03/13 08:42:24;;;;;;;8.73;3.13;;;;;;;14.63;100.00;99533.13;6292621;22;20069;-70
2023/03/13 08:44:50;;;;;;;6.60;2.95;;;;;;;14.71;100.00;99534.03;6264864;22;20019;-67
2023/03/13 08:47:17;;;;;;;7.50;2.88;;;;;;;14.77;100.00;99535.25;6292941;22;20022;-66
2023/03/13 08:49:43;;;;;;;6.35;2.55;;;;;;;14.85;100.00;99531.75;6292963;22;20046;-68
2023/03/13 08:52:09;;;;;;;9.02;2.60;;;;;;;14.86;100.00;99542.38;6293195;22;20046;-69
2023/03/13 08:54:34;;;;;;;7.13;2.72;;;;;;;14.92;100.00;99533.69;6265682;22;20029;-66
2023/03/13 08:57:00;;;;;;;5.18;2.55;;;;;;;14.84;100.00;99538.97;6292691;22;20015;-68
2023/03/13 08:59:25;;;;;;;7.45;2.28;;;;;;;14.80;100.00;99544.81;6292824;22;20085;-65
2023/03/13 09:01:51;;;;;;;5.10;2.28;;;;;;;14.81;100.00;99539.31;6293137;22;20053;-66
2023/03/13 09:04:18;;;;;;;10.45;3.47;;;;;;;14.75;100.00;99537.22;6292668;22;20015;-65
2023/03/13 09:06:43;;;;;;;9.20;2.92;;;;;;;14.91;100.00;99542.72;6292720;22;20045;-67
2023/03/13 09:09:10;;;;;;;16.02;3.35;;;;;;;14.74;100.00;99522.97;6292805;22;20019;-67
2023/03/13 09:11:38;;;;;;;11.30;2.85;;;;;;;14.98;100.00;99533.03;6292860;22;20011;-66
2023/03/13 09:14:04;;;;;;;12.70;3.70;;;;;;;14.87;100.00;99519.03;6263805;22;20011;-67
2023/03/13 09:16:31;;;;;;;11.52;3.85;;;;;;;14.89;100.00;99522.41;6292062;22;20015;-67
2023/03/13 09:18:57;;;;;;;9.02;2.83;;;;;;;14.83;100.00;99512.31;6292243;22;20011;-68
2023/03/13 09:21:25;;;;;;;5.47;2.70;;;;;;;14.80;100.00;99515.28;6292277;22;20716;-66
2023/03/13 09:23:51;;;;;;;11.50;2.97;;;;;;;14.73;100.00;99523.97;6265041;22;20085;-66
2023/03/13 09:26:18;;;;;;;7.90;2.75;;;;;;;14.68;100.00;99534.34;6292707;22;20011;-66
2023/03/13 09:28:44;;;;;;;10.52;3.45;;;;;;;14.72;100.00;99546.44;6292564;22;20057;-67
2023/03/13 09:31:14;;;;;;;12.05;2.60;;;;;;;15.01;100.00;99516.63;6264387;22;20019;-66
2023/03/13 09:33:41;;;;;;;6.20;2.50;;;;;;;15.12;100.00;99501.25;6291453;22;20022;-65
2023/03/13 09:36:08;;;;;;;13.45;3.10;;;;;;;15.27;100.00;99503.19;6292623;22;20092;-66
2023/03/13 09:38:34;;;;;;;4.07;1.70;;;;;;;15.41;100.00;99480.25;6292470;22;20077;-67
2023/03/13 09:41:18;;;;;;;2.85;1.65;;;;;;;15.67;100.00;99471.28;6293175;22;20039;-66
2023/03/13 09:43:50;;;;;;;3.42;1.60;;;;;;;15.69;100.00;99471.97;6292893;22;20628;-67
2023/03/13 09:46:44;;;;;;;11.02;2.47;;;;;;;15.83;100.00;99478.56;6293794;22;20026;-67
2023/03/13 09:49:43;;;;;;;6.85;2.90;;;;;;;16.21;100.00;99475.22;6265073;22;20013;-67
2023/03/13 09:52:14;;;;;;;7.60;2.30;;;;;;;16.64;100.00;99472.38;6292417;22;20011;-67
2023/03/13 09:54:51;;;;;;;6.85;2.17;;;;;;;16.10;100.00;99470.19;6264407;22;20089;-67
2023/03/13 09:57:24;;;;;;;5.80;2.38;;;;;;;16.16;100.00;99468.69;6264611;22;20648;-67
2023/03/13 09:59:59;;;;;;;7.85;3.05;;;;;;;15.94;100.00;99460.25;6265071;22;20011;-67
2023/03/13 10:02:32;;;;;;;3.95;2.10;;;;;;;16.11;100.00;99461.09;6264346;22;20756;-68
2023/03/13 10:05:13;;;;;;;7.00;2.22;;;;;;;16.38;100.00;99453.75;6292290;22;20089;-68
2023/03/13 10:07:39;;;;;;;2.50;2.17;;;;;;;15.92;100.00;99461.44;6263091;22;20011;-67
2023/03/13 10:10:13;;;;;;;7.53;1.90;;;;;;;15.98;100.00;99450.03;6255309;22;20087;-67
2023/03/13 10:12:44;;;;;;;5.95;1.95;;;;;;;15.96;100.00;99450.16;6272209;22;20071;-68
2023/03/13 10:15:33;;;;;;;9.50;2.05;;;;;;;16.04;100.00;99442.13;6322757;22;20395;-68
2023/03/13 10:18:05;;;;;;;6.40;2.08;;;;;;;15.96;100.00;99454.69;6322138;22;20769;-67
2023/03/13 10:20:34;;;;;;;6.20;1.67;;;;;;;15.89;100.00;99437.56;6322579;22;20054;-68
2023/03/13 10:23:05;;;;;;;4.72;2.20;;;;;;;15.95;100.00;99439.59;6258579;22;20109;-68
2023/03/13 10:25:39;;;;;;;4.53;2.35;;;;;;;16.24;100.00;99441.78;6323066;22;20460;-66
2023/03/13 10:28:11;;;;;;;5.13;2.05;;;;;;;16.24;100.00;99444.47;6323104;22;20536;-66
2023/03/13 10:30:38;;;;;;;5.05;2.08;;;;;;;16.45;100.00;99428.66;6268909;22;20011;-66
2023/03/13 10:33:06;;;;;;;4.40;2.10;;;;;;;16.30;100.00;99420.44;6322093;22;20019;-68
2023/03/13 10:35:35;;;;;;;4.22;1.73;;;;;;;16.13;100.00;99428.69;6322325;22;20524;-66
2023/03/13 10:38:05;;;;;;;4.35;1.80;;;;;;;16.34;100.00;99431.69;6322089;22;20026;-67
2023/03/13 10:40:31;;;;;;;6.47;2.03;;;;;;;16.17;100.00;99430.88;6323467;22;20024;-67
2023/03/13 10:43:27;;;;;;;10.82;1.98;;;;;;;16.33;100.00;99429.19;6321883;22;20084;-68
2023/03/13 10:45:52;;;;;;;3.20;1.80;;;;;;;16.52;100.00;99416.22;6294649;22;20086;-66
2023/03/13 10:48:28;;;;;;;3.80;1.90;;;;;;;16.55;100.00;99418.56;6321129;22;20106;-66
2023/03/13 10:50:58;;;;;;;3.58;2.13;;;;;;;16.71;100.00;99414.16;6321196;22;20042;-67
2023/03/13 10:53:30;;;;;;;4.45;1.77;;;;;;;16.47;100.00;99410.50;6294843;22;20019;-67
2023/03/13 10:56:25;;;;;;;4.07;1.50;;;;;;;16.81;98.48;99418.34;6323065;22;20084;-66
2023/03/13 10:58:52;;;;;;;3.33;1.60;;;;;;;16.85;96.53;99391.94;6319478;22;20030;-67
2023/03/13 11:01:23;;;;;;;6.50;1.85;;;;;;;16.98;95.64;99394.09;6294915;22;20138;-68
2023/03/13 11:03:51;;;;;;;1.55;1.38;;;;;;;16.99;94.06;99417.31;6322026;22;20015;-68
2023/03/13 11:06:24;;;;;;;2.17;1.30;;;;;;;16.72;94.09;99391.66;6322620;22;20011;-67
2023/03/13 11:09:17;;;;;;;4.72;1.60;;;;;;;16.97;94.31;99382.50;6294821;22;20047;-67
2023/03/13 11:11:49;;;;;;;3.47;1.60;;;;;;;17.41;92.13;99383.78;6321878;22;20021;-68
2023/03/13 11:14:19;;;;;;;3.38;1.77;;;;;;;17.26;90.50;99395.31;6323257;22;20018;-68
2023/03/13 11:17:08;;;;;;;6.63;1.42;;;;;;;16.94;91.74;99376.59;6323683;22;20010;-68
2023/03/13 11:19:59;;;;;;;2.72;1.75;;;;;;;17.04;91.35;99388.00;6295455;22;20019;-66
2023/03/13 11:22:39;;;;;;;4.53;1.55;;;;;;;17.09;91.77;99370.31;6323364;22;20090;-68
2023/03/13 11:25:20;;;;;;;6.57;2.78;;;;;;;17.16;91.22;99365.03;6324211;22;20093;-68
2023/03/13 11:27:54;;;;;;;2.97;1.45;;;;;;;17.27;90.65;99361.97;6323968;22;20015;-67
2023/03/13 11:30:58;;;;;;;5.03;2.03;;;;;;;17.33;91.12;99353.19;6324532;22;20011;-68
2023/03/13 11:33:33;;;;;;;3.70;1.67;;;;;;;17.49;90.83;99356.78;6295959;22;20018;-67
2023/03/13 11:36:08;;;;;;;8.13;1.70;;;;;;;17.48;88.75;99342.47;6297113;22;20659;-67